sensor_id;sensor_type;location;lat;lon;timestamp;temperature;humidity
21487;DHT22;10905;50.822;4.336;2023-10-31T00:00:15;12.20;99.90
21487;DHT22;10905;50.822;4.336;2023-10-31T00:02:41;12.10;99.90
21487;DHT22;10905;50.822;4.336;2023-10-31T00:05:07;12.00;99.90
21487;DHT22;10905;50.822;4.336;2023-10-31T00:07:32;12.00;99.90
21487;DHT22;10905;50.822;4.336;2023-10-31T00:09:58;12.00;99.90
21487;DHT22;10905;50.822;4.336;2023-10-31T00:12:23;12.00;99.90
21487;DHT22;10905;50.822;4.336;2023-10-31T00:14:49;12.00;99.90
21487;DHT22;10905;50.822;4.336;2023-10-31T00:17:15;12.00;99.90
21487;DHT22;10905;50.822;4.336;2023-10-31T00:19:40;12.00;99.90
21487;DHT22;10905;50.822;4.336;2023-10-31T00:22:06;11.90;99.90
21487;DHT22;10905;50.822;4.336;2023-10-31T00:24:32;12.00;99.90
21487;DHT22;10905;50.822;4.336;2023-10-31T00:26:58;12.00;99.90
21487;DHT22;10905;50.822;4.336;2023-10-31T00:29:23;11.90;99.90
21487;DHT22;10905;50.822;4.336;2023-10-31T00:31:49;12.00;99.90
21487;DHT22;10905;50.822;4.336;2023-10-31T00:34:15;12.00;99.90
21487;DHT22;10905;50.822;4.336;2023-10-31T00:36:41;12.00;99.90
21487;DHT22;10905;50.822;4.336;2023-10-31T00:39:06;12.00;99.90
21487;DHT22;10905;50.822;4.336;2023-10-31T00:41:32;11.90;99.90
21487;DHT22;10905;50.822;4.336;2023-10-31T00:43:58;12.00;99.90
21487;DHT22;10905;50.822;4.336;2023-10-31T00:46:23;12.00;99.90
21487;DHT22;10905;50.822;4.336;2023-10-31T00:48:49;12.10;99.90
21487;DHT22;10905;50.822;4.336;2023-10-31T00:51:14;12.10;99.90
21487;DHT22;10905;50.822;4.336;2023-10-31T00:53:40;12.00;99.90
21487;DHT22;10905;50.822;4.336;2023-10-31T00:56:06;12.10;99.90
21487;DHT22;10905;50.822;4.336;2023-10-31T00:58:31;12.10;99.90
21487;DHT22;10905;50.822;4.336;2023-10-31T01:00:57;12.10;99.90
21487;DHT22;10905;50.822;4.336;2023-10-31T01:03:23;12.10;99.90
21487;DHT22;10905;50.822;4.336;2023-10-31T01:05:49;12.00;99.90
21487;DHT22;10905;50.822;4.336;2023-10-31T01:08:15;12.00;99.90
21487;DHT22;10905;50.822;4.336;2023-10-31T01:10:40;12.10;99.90
21487;DHT22;10905;50.822;4.336;2023-10-31T01:13:06;12.10;99.90
21487;DHT22;10905;50.822;4.336;2023-10-31T01:15:31;12.00;99.90
21487;DHT22;10905;50.822;4.336;2023-10-31T01:17:57;12.00;99.90
21487;DHT22;10905;50.822;4.336;2023-10-31T01:20:23;12.00;99.90
21487;DHT22;10905;50.822;4.336;2023-10-31T01:22:48;12.00;99.90
21487;DHT22;10905;50.822;4.336;2023-10-31T01:25:14;12.00;99.90
21487;DHT22;10905;50.822;4.336;2023-10-31T01:27:39;12.00;99.90
21487;DHT22;10905;50.822;4.336;2023-10-31T01:30:07;12.00;99.90
21487;DHT22;10905;50.822;4.336;2023-10-31T01:32:33;12.00;99.90
21487;DHT22;10905;50.822;4.336;2023-10-31T01:34:59;12.00;99.90
21487;DHT22;10905;50.822;4.336;2023-10-31T01:37:25;12.10;99.90
21487;DHT22;10905;50.822;4.336;2023-10-31T01:39:50;12.00;99.90
21487;DHT22;10905;50.822;4.336;2023-10-31T01:42:17;12.00;99.90
21487;DHT22;10905;50.822;4.336;2023-10-31T01:44:43;12.10;99.90
21487;DHT22;10905;50.822;4.336;2023-10-31T01:47:08;12.10;99.90
21487;DHT22;10905;50.822;4.336;2023-10-31T01:49:35;12.10;99.90
21487;DHT22;10905;50.822;4.336;2023-10-31T01:52:03;11.90;99.90
21487;DHT22;10905;50.822;4.336;2023-10-31T01:54:29;11.90;99.90
21487;DHT22;10905;50.822;4.336;2023-10-31T01:56:56;11.80;99.90
21487;DHT22;10905;50.822;4.336;2023-10-31T01:59:24;11.80;99.90
21487;DHT22;10905;50.822;4.336;2023-10-31T02:01:50;11.80;99.90
21487;DHT22;10905;50.822;4.336;2023-10-31T02:04:16;11.90;99.90
21487;DHT22;10905;50.822;4.336;2023-10-31T02:06:41;11.90;99.90
21487;DHT22;10905;50.822;4.336;2023-10-31T02:09:07;11.90;99.90
21487;DHT22;10905;50.822;4.336;2023-10-31T02:11:32;11.80;99.90
21487;DHT22;10905;50.822;4.336;2023-10-31T02:13:58;11.80;99.90
21487;DHT22;10905;50.822;4.336;2023-10-31T02:16:24;11.80;99.90
21487;DHT22;10905;50.822;4.336;2023-10-31T02:18:50;11.80;99.90
21487;DHT22;10905;50.822;4.336;2023-10-31T02:21:17;11.80;99.90
21487;DHT22;10905;50.822;4.336;2023-10-31T02:24:04;11.80;99.90
21487;DHT22;10905;50.822;4.336;2023-10-31T02:26:34;11.80;99.90
21487;DHT22;10905;50.822;4.336;2023-10-31T02:29:01;11.80;99.90
21487;DHT22;10905;50.822;4.336;2023-10-31T02:31:27;11.80;99.90
21487;DHT22;10905;50.822;4.336;2023-10-31T02:33:52;11.80;99.90
21487;DHT22;10905;50.822;4.336;2023-10-31T02:36:18;11.90;99.90
21487;DHT22;10905;50.822;4.336;2023-10-31T02:38:44;11.90;99.90
21487;DHT22;10905;50.822;4.336;2023-10-31T02:41:10;11.80;99.90
21487;DHT22;10905;50.822;4.336;2023-10-31T02:43:36;11.80;99.90
21487;DHT22;10905;50.822;4.336;2023-10-31T02:46:01;11.70;99.90
21487;DHT22;10905;50.822;4.336;2023-10-31T02:48:27;11.70;99.90
21487;DHT22;10905;50.822;4.336;2023-10-31T02:50:53;11.60;99.90
21487;DHT22;10905;50.822;4.336;2023-10-31T02:53:18;11.60;99.90
21487;DHT22;10905;50.822;4.336;2023-10-31T02:55:44;11.50;99.90
21487;DHT22;10905;50.822;4.336;2023-10-31T02:58:10;11.50;99.90
21487;DHT22;10905;50.822;4.336;2023-10-31T03:00:36;11.50;99.90
21487;DHT22;10905;50.822;4.336;2023-10-31T03:03:02;11.60;99.90
21487;DHT22;10905;50.822;4.336;2023-10-31T03:05:27;11.60;99.90
21487;DHT22;10905;50.822;4.336;2023-10-31T03:07:53;11.60;99.90
21487;DHT22;10905;50.822;4.336;2023-10-31T03:10:22;11.60;99.90
21487;DHT22;10905;50.822;4.336;2023-10-31T03:12:48;11.60;99.90
21487;DHT22;10905;50.822;4.336;2023-10-31T03:15:13;11.60;99.90
21487;DHT22;10905;50.822;4.336;2023-10-31T03:17:39;11.60;99.90
21487;DHT22;10905;50.822;4.336;2023-10-31T03:20:05;11.50;99.90
21487;DHT22;10905;50.822;4.336;2023-10-31T03:22:31;11.60;99.90
21487;DHT22;10905;50.822;4.336;2023-10-31T03:24:56;11.50;99.90
21487;DHT22;10905;50.822;4.336;2023-10-31T03:27:22;11.50;99.90
21487;DHT22;10905;50.822;4.336;2023-10-31T03:29:48;11.60;99.90
21487;DHT22;10905;50.822;4.336;2023-10-31T03:32:14;11.60;99.90
21487;DHT22;10905;50.822;4.336;2023-10-31T03:34:40;11.60;99.90
21487;DHT22;10905;50.822;4.336;2023-10-31T03:37:06;11.50;99.90
21487;DHT22;10905;50.822;4.336;2023-10-31T03:39:31;11.50;99.90
21487;DHT22;10905;50.822;4.336;2023-10-31T03:41:57;11.50;99.90
21487;DHT22;10905;50.822;4.336;2023-10-31T03:44:23;11.50;99.90
21487;DHT22;10905;50.822;4.336;2023-10-31T03:46:48;11.50;99.90
21487;DHT22;10905;50.822;4.336;2023-10-31T03:49:14;11.50;99.90
21487;DHT22;10905;50.822;4.336;2023-10-31T03:51:39;11.50;99.90
21487;DHT22;10905;50.822;4.336;2023-10-31T03:54:05;11.40;99.90
21487;DHT22;10905;50.822;4.336;2023-10-31T03:56:31;11.40;99.90
21487;DHT22;10905;50.822;4.336;2023-10-31T03:59:03;11.40;99.90
21487;DHT22;10905;50.822;4.336;2023-10-31T04:01:28;11.40;99.90
21487;DHT22;10905;50.822;4.336;2023-10-31T04:03:55;11.50;99.90
21487;DHT22;10905;50.822;4.336;2023-10-31T04:06:21;11.50;99.90
21487;DHT22;10905;50.822;4.336;2023-10-31T04:08:47;11.50;99.90
21487;DHT22;10905;50.822;4.336;2023-10-31T04:11:13;11.50;99.90
21487;DHT22;10905;50.822;4.336;2023-10-31T04:13:38;11.50;99.90
21487;DHT22;10905;50.822;4.336;2023-10-31T04:16:04;11.50;99.90
21487;DHT22;10905;50.822;4.336;2023-10-31T04:18:30;11.60;99.90
21487;DHT22;10905;50.822;4.336;2023-10-31T04:20:55;11.70;99.90
21487;DHT22;10905;50.822;4.336;2023-10-31T04:23:21;11.60;99.90
21487;DHT22;10905;50.822;4.336;2023-10-31T04:25:46;11.70;99.90
21487;DHT22;10905;50.822;4.336;2023-10-31T04:28:12;11.80;99.90
21487;DHT22;10905;50.822;4.336;2023-10-31T04:30:40;11.80;99.90
21487;DHT22;10905;50.822;4.336;2023-10-31T04:33:05;11.80;99.90
21487;DHT22;10905;50.822;4.336;2023-10-31T04:35:31;11.70;99.90
21487;DHT22;10905;50.822;4.336;2023-10-31T04:37:56;11.60;99.90
21487;DHT22;10905;50.822;4.336;2023-10-31T04:40:22;11.60;99.90
21487;DHT22;10905;50.822;4.336;2023-10-31T04:42:48;11.60;99.90
21487;DHT22;10905;50.822;4.336;2023-10-31T04:45:13;11.50;99.90
21487;DHT22;10905;50.822;4.336;2023-10-31T04:47:41;11.40;99.90
21487;DHT22;10905;50.822;4.336;2023-10-31T04:50:07;11.50;99.90
21487;DHT22;10905;50.822;4.336;2023-10-31T04:52:32;11.50;99.90
21487;DHT22;10905;50.822;4.336;2023-10-31T04:54:58;11.40;99.90
21487;DHT22;10905;50.822;4.336;2023-10-31T04:57:23;11.50;99.90
21487;DHT22;10905;50.822;4.336;2023-10-31T04:59:49;11.50;99.90
21487;DHT22;10905;50.822;4.336;2023-10-31T05:02:15;11.40;99.90
21487;DHT22;10905;50.822;4.336;2023-10-31T05:04:41;11.40;99.90
21487;DHT22;10905;50.822;4.336;2023-10-31T05:07:07;11.40;99.90
21487;DHT22;10905;50.822;4.336;2023-10-31T05:09:33;11.50;99.90
21487;DHT22;10905;50.822;4.336;2023-10-31T05:11:59;11.60;99.90
21487;DHT22;10905;50.822;4.336;2023-10-31T05:14:26;11.60;99.90
21487;DHT22;10905;50.822;4.336;2023-10-31T05:16:51;11.60;99.90
21487;DHT22;10905;50.822;4.336;2023-10-31T05:19:17;11.60;99.90
21487;DHT22;10905;50.822;4.336;2023-10-31T05:21:42;11.60;99.90
21487;DHT22;10905;50.822;4.336;2023-10-31T05:24:08;11.60;99.90
21487;DHT22;10905;50.822;4.336;2023-10-31T05:26:34;11.60;99.90
21487;DHT22;10905;50.822;4.336;2023-10-31T05:28:59;11.60;99.90
21487;DHT22;10905;50.822;4.336;2023-10-31T05:31:25;11.60;99.90
21487;DHT22;10905;50.822;4.336;2023-10-31T05:33:51;11.70;99.90
21487;DHT22;10905;50.822;4.336;2023-10-31T05:36:21;11.70;99.90
21487;DHT22;10905;50.822;4.336;2023-10-31T05:38:48;11.70;99.90
21487;DHT22;10905;50.822;4.336;2023-10-31T05:41:14;11.60;99.90
21487;DHT22;10905;50.822;4.336;2023-10-31T05:43:40;11.60;99.90
21487;DHT22;10905;50.822;4.336;2023-10-31T05:46:06;11.80;99.90
21487;DHT22;10905;50.822;4.336;2023-10-31T05:48:32;11.70;99.90
21487;DHT22;10905;50.822;4.336;2023-10-31T05:50:57;11.80;99.90
21487;DHT22;10905;50.822;4.336;2023-10-31T05:53:23;11.70;99.90
21487;DHT22;10905;50.822;4.336;2023-10-31T05:55:49;11.80;99.90
21487;DHT22;10905;50.822;4.336;2023-10-31T05:58:14;11.80;99.90
21487;DHT22;10905;50.822;4.336;2023-10-31T06:00:40;11.80;99.90
21487;DHT22;10905;50.822;4.336;2023-10-31T06:03:05;11.80;99.90
21487;DHT22;10905;50.822;4.336;2023-10-31T06:05:31;11.80;99.90
21487;DHT22;10905;50.822;4.336;2023-10-31T06:07:57;11.70;99.90
21487;DHT22;10905;50.822;4.336;2023-10-31T06:10:22;11.80;99.90
21487;DHT22;10905;50.822;4.336;2023-10-31T06:12:48;11.80;99.90
21487;DHT22;10905;50.822;4.336;2023-10-31T06:15:14;11.70;99.90
21487;DHT22;10905;50.822;4.336;2023-10-31T06:17:39;11.70;99.90
21487;DHT22;10905;50.822;4.336;2023-10-31T06:20:08;11.80;99.90
21487;DHT22;10905;50.822;4.336;2023-10-31T06:22:33;11.80;99.90
21487;DHT22;10905;50.822;4.336;2023-10-31T06:24:59;11.70;99.90
21487;DHT22;10905;50.822;4.336;2023-10-31T06:27:25;11.60;99.90
21487;DHT22;10905;50.822;4.336;2023-10-31T06:29:51;11.60;99.90
21487;DHT22;10905;50.822;4.336;2023-10-31T06:32:16;11.60;99.90
21487;DHT22;10905;50.822;4.336;2023-10-31T06:34:42;11.60;99.90
21487;DHT22;10905;50.822;4.336;2023-10-31T06:37:07;11.70;99.90
21487;DHT22;10905;50.822;4.336;2023-10-31T06:39:33;11.70;99.90
21487;DHT22;10905;50.822;4.336;2023-10-31T06:41:58;11.60;99.90
21487;DHT22;10905;50.822;4.336;2023-10-31T06:44:24;11.70;99.90
21487;DHT22;10905;50.822;4.336;2023-10-31T06:46:49;11.70;99.90
21487;DHT22;10905;50.822;4.336;2023-10-31T06:49:15;11.70;99.90
21487;DHT22;10905;50.822;4.336;2023-10-31T06:51:41;11.60;99.90
21487;DHT22;10905;50.822;4.336;2023-10-31T06:54:07;11.60;99.90
21487;DHT22;10905;50.822;4.336;2023-10-31T06:56:32;11.60;99.90
21487;DHT22;10905;50.822;4.336;2023-10-31T06:58:58;11.60;99.90
21487;DHT22;10905;50.822;4.336;2023-10-31T07:01:24;11.60;99.90
21487;DHT22;10905;50.822;4.336;2023-10-31T07:03:49;11.70;99.90
21487;DHT22;10905;50.822;4.336;2023-10-31T07:06:15;11.80;99.90
21487;DHT22;10905;50.822;4.336;2023-10-31T07:08:41;11.70;99.90
21487;DHT22;10905;50.822;4.336;2023-10-31T07:11:06;11.60;99.90
21487;DHT22;10905;50.822;4.336;2023-10-31T07:13:32;11.60;99.90
21487;DHT22;10905;50.822;4.336;2023-10-31T07:15:57;11.70;99.90
21487;DHT22;10905;50.822;4.336;2023-10-31T07:18:23;11.60;99.90
21487;DHT22;10905;50.822;4.336;2023-10-31T07:20:49;11.70;99.90
21487;DHT22;10905;50.822;4.336;2023-10-31T07:23:14;11.70;99.90
21487;DHT22;10905;50.822;4.336;2023-10-31T07:25:40;11.80;99.90
21487;DHT22;10905;50.822;4.336;2023-10-31T07:28:06;11.70;99.90
21487;DHT22;10905;50.822;4.336;2023-10-31T07:30:31;11.70;99.90
21487;DHT22;10905;50.822;4.336;2023-10-31T07:32:57;11.70;99.90
21487;DHT22;10905;50.822;4.336;2023-10-31T07:35:23;11.80;99.90
21487;DHT22;10905;50.822;4.336;2023-10-31T07:37:48;11.80;99.90
21487;DHT22;10905;50.822;4.336;2023-10-31T07:40:14;11.90;99.90
21487;DHT22;10905;50.822;4.336;2023-10-31T07:42:39;12.00;99.90
21487;DHT22;10905;50.822;4.336;2023-10-31T07:45:05;12.10;99.90
21487;DHT22;10905;50.822;4.336;2023-10-31T07:47:31;12.10;99.90
21487;DHT22;10905;50.822;4.336;2023-10-31T07:49:57;12.10;99.90
21487;DHT22;10905;50.822;4.336;2023-10-31T07:52:22;12.10;99.90
21487;DHT22;10905;50.822;4.336;2023-10-31T07:54:48;12.10;99.90
21487;DHT22;10905;50.822;4.336;2023-10-31T07:57:14;12.10;99.90
21487;DHT22;10905;50.822;4.336;2023-10-31T07:59:40;12.10;99.90
21487;DHT22;10905;50.822;4.336;2023-10-31T08:02:06;12.10;99.90
21487;DHT22;10905;50.822;4.336;2023-10-31T08:04:32;12.00;99.90
21487;DHT22;10905;50.822;4.336;2023-10-31T08:06:57;12.00;99.90
21487;DHT22;10905;50.822;4.336;2023-10-31T08:09:23;12.10;99.90
21487;DHT22;10905;50.822;4.336;2023-10-31T08:11:48;12.00;99.90
21487;DHT22;10905;50.822;4.336;2023-10-31T08:14:14;12.00;99.90
21487;DHT22;10905;50.822;4.336;2023-10-31T08:16:41;12.00;99.90
21487;DHT22;10905;50.822;4.336;2023-10-31T08:19:07;12.00;99.90
21487;DHT22;10905;50.822;4.336;2023-10-31T08:21:33;11.90;99.90
21487;DHT22;10905;50.822;4.336;2023-10-31T08:24:01;12.00;99.90
21487;DHT22;10905;50.822;4.336;2023-10-31T08:26:27;12.10;99.90
21487;DHT22;10905;50.822;4.336;2023-10-31T08:28:53;12.00;99.90
21487;DHT22;10905;50.822;4.336;2023-10-31T08:31:18;12.00;99.90
21487;DHT22;10905;50.822;4.336;2023-10-31T08:33:45;12.00;99.90
21487;DHT22;10905;50.822;4.336;2023-10-31T08:36:11;12.00;99.90
21487;DHT22;10905;50.822;4.336;2023-10-31T08:38:36;11.90;99.90
21487;DHT22;10905;50.822;4.336;2023-10-31T08:41:02;11.80;99.90
21487;DHT22;10905;50.822;4.336;2023-10-31T08:43:28;11.90;99.90
21487;DHT22;10905;50.822;4.336;2023-10-31T08:45:53;12.00;99.90
21487;DHT22;10905;50.822;4.336;2023-10-31T08:48:19;12.00;99.90
21487;DHT22;10905;50.822;4.336;2023-10-31T08:50:45;12.10;99.90
21487;DHT22;10905;50.822;4.336;2023-10-31T08:53:11;12.10;99.90
21487;DHT22;10905;50.822;4.336;2023-10-31T08:55:37;12.10;99.90
21487;DHT22;10905;50.822;4.336;2023-10-31T08:58:03;12.20;99.90
21487;DHT22;10905;50.822;4.336;2023-10-31T09:00:28;12.30;99.90
21487;DHT22;10905;50.822;4.336;2023-10-31T09:02:54;12.40;99.90
21487;DHT22;10905;50.822;4.336;2023-10-31T09:05:20;12.40;99.90
21487;DHT22;10905;50.822;4.336;2023-10-31T09:07:45;12.50;99.90
21487;DHT22;10905;50.822;4.336;2023-10-31T09:10:12;12.60;99.90
21487;DHT22;10905;50.822;4.336;2023-10-31T09:12:37;12.70;99.90
21487;DHT22;10905;50.822;4.336;2023-10-31T09:15:03;12.70;99.90
21487;DHT22;10905;50.822;4.336;2023-10-31T09:17:29;12.80;99.90
21487;DHT22;10905;50.822;4.336;2023-10-31T09:19:55;12.90;99.90
21487;DHT22;10905;50.822;4.336;2023-10-31T09:22:21;13.00;99.90
21487;DHT22;10905;50.822;4.336;2023-10-31T09:24:47;13.00;99.90
21487;DHT22;10905;50.822;4.336;2023-10-31T09:27:12;12.80;99.90
21487;DHT22;10905;50.822;4.336;2023-10-31T09:29:38;12.80;99.90
21487;DHT22;10905;50.822;4.336;2023-10-31T09:32:04;12.80;99.90
21487;DHT22;10905;50.822;4.336;2023-10-31T09:34:31;12.80;99.90
21487;DHT22;10905;50.822;4.336;2023-10-31T09:36:58;12.80;99.90
21487;DHT22;10905;50.822;4.336;2023-10-31T09:39:24;12.80;99.90
21487;DHT22;10905;50.822;4.336;2023-10-31T09:41:49;12.70;99.90
21487;DHT22;10905;50.822;4.336;2023-10-31T09:44:15;12.70;99.90
21487;DHT22;10905;50.822;4.336;2023-10-31T09:46:41;12.70;99.90
21487;DHT22;10905;50.822;4.336;2023-10-31T09:49:08;12.70;99.90
21487;DHT22;10905;50.822;4.336;2023-10-31T09:51:34;12.70;99.90
21487;DHT22;10905;50.822;4.336;2023-10-31T09:54:02;12.70;99.90
21487;DHT22;10905;50.822;4.336;2023-10-31T09:56:29;12.80;99.90
21487;DHT22;10905;50.822;4.336;2023-10-31T09:59:00;12.80;99.90
21487;DHT22;10905;50.822;4.336;2023-10-31T10:01:26;12.90;99.90
21487;DHT22;10905;50.822;4.336;2023-10-31T10:03:52;13.00;99.90
21487;DHT22;10905;50.822;4.336;2023-10-31T10:06:21;12.90;99.90
21487;DHT22;10905;50.822;4.336;2023-10-31T10:08:49;12.90;99.90
21487;DHT22;10905;50.822;4.336;2023-10-31T10:11:14;12.90;99.90
21487;DHT22;10905;50.822;4.336;2023-10-31T10:13:40;12.90;99.90
21487;DHT22;10905;50.822;4.336;2023-10-31T10:16:06;12.80;99.90
21487;DHT22;10905;50.822;4.336;2023-10-31T10:18:34;12.70;99.90
21487;DHT22;10905;50.822;4.336;2023-10-31T10:21:04;12.70;99.90
21487;DHT22;10905;50.822;4.336;2023-10-31T10:23:31;12.80;99.90
21487;DHT22;10905;50.822;4.336;2023-10-31T10:25:58;12.70;99.90
21487;DHT22;10905;50.822;4.336;2023-10-31T10:28:25;12.60;99.90
21487;DHT22;10905;50.822;4.336;2023-10-31T10:30:51;12.60;99.90
21487;DHT22;10905;50.822;4.336;2023-10-31T10:33:18;12.70;99.90
21487;DHT22;10905;50.822;4.336;2023-10-31T10:35:44;12.70;99.90
21487;DHT22;10905;50.822;4.336;2023-10-31T10:38:12;12.70;99.90
21487;DHT22;10905;50.822;4.336;2023-10-31T10:40:41;12.80;99.90
21487;DHT22;10905;50.822;4.336;2023-10-31T10:43:20;12.80;99.90
21487;DHT22;10905;50.822;4.336;2023-10-31T10:45:46;12.80;99.90
21487;DHT22;10905;50.822;4.336;2023-10-31T10:48:15;12.80;99.90
21487;DHT22;10905;50.822;4.336;2023-10-31T10:50:45;12.70;99.90
21487;DHT22;10905;50.822;4.336;2023-10-31T10:53:26;12.70;99.90
21487;DHT22;10905;50.822;4.336;2023-10-31T10:56:00;12.70;99.90
21487;DHT22;10905;50.822;4.336;2023-10-31T10:59:35;12.70;99.90
21487;DHT22;10905;50.822;4.336;2023-10-31T11:01:35;12.60;99.90
21487;DHT22;10905;50.822;4.336;2023-10-31T11:04:01;12.70;99.90
21487;DHT22;10905;50.822;4.336;2023-10-31T11:06:29;12.70;99.90
21487;DHT22;10905;50.822;4.336;2023-10-31T11:08:55;12.70;99.90
21487;DHT22;10905;50.822;4.336;2023-10-31T11:11:21;12.60;99.90
21487;DHT22;10905;50.822;4.336;2023-10-31T11:13:50;12.50;99.90
21487;DHT22;10905;50.822;4.336;2023-10-31T11:16:26;12.40;99.90
21487;DHT22;10905;50.822;4.336;2023-10-31T11:18:54;12.50;99.90
21487;DHT22;10905;50.822;4.336;2023-10-31T11:21:22;12.40;99.90
21487;DHT22;10905;50.822;4.336;2023-10-31T11:23:59;12.40;99.90
21487;DHT22;10905;50.822;4.336;2023-10-31T11:26:26;12.50;99.90
21487;DHT22;10905;50.822;4.336;2023-10-31T11:28:52;12.60;99.90
21487;DHT22;10905;50.822;4.336;2023-10-31T11:31:17;12.70;99.90
21487;DHT22;10905;50.822;4.336;2023-10-31T11:33:43;12.70;99.90
21487;DHT22;10905;50.822;4.336;2023-10-31T11:36:11;12.70;99.90
21487;DHT22;10905;50.822;4.336;2023-10-31T11:38:37;12.70;99.90
21487;DHT22;10905;50.822;4.336;2023-10-31T11:41:04;12.70;99.90
21487;DHT22;10905;50.822;4.336;2023-10-31T11:43:56;12.60;99.90
21487;DHT22;10905;50.822;4.336;2023-10-31T11:46:23;12.60;99.90
21487;DHT22;10905;50.822;4.336;2023-10-31T11:48:53;12.70;99.90
21487;DHT22;10905;50.822;4.336;2023-10-31T11:51:20;12.70;99.90
21487;DHT22;10905;50.822;4.336;2023-10-31T11:53:45;12.70;99.90
21487;DHT22;10905;50.822;4.336;2023-10-31T11:56:12;12.70;99.90
21487;DHT22;10905;50.822;4.336;2023-10-31T11:58:38;12.70;99.90
21487;DHT22;10905;50.822;4.336;2023-10-31T12:01:05;12.70;99.90
21487;DHT22;10905;50.822;4.336;2023-10-31T12:03:42;12.70;99.90
21487;DHT22;10905;50.822;4.336;2023-10-31T12:06:09;12.70;99.90
21487;DHT22;10905;50.822;4.336;2023-10-31T12:08:43;12.50;99.90
21487;DHT22;10905;50.822;4.336;2023-10-31T12:11:15;12.30;99.90
21487;DHT22;10905;50.822;4.336;2023-10-31T12:14:02;12.20;99.90
21487;DHT22;10905;50.822;4.336;2023-10-31T12:16:32;12.20;99.90
21487;DHT22;10905;50.822;4.336;2023-10-31T12:21:46;12.30;99.90
21487;DHT22;10905;50.822;4.336;2023-10-31T12:24:14;12.40;99.90
21487;DHT22;10905;50.822;4.336;2023-10-31T12:26:41;12.40;99.90
21487;DHT22;10905;50.822;4.336;2023-10-31T12:29:13;12.30;99.90
21487;DHT22;10905;50.822;4.336;2023-10-31T12:31:52;12.30;99.90
21487;DHT22;10905;50.822;4.336;2023-10-31T12:34:20;12.30;99.90
21487;DHT22;10905;50.822;4.336;2023-10-31T12:36:48;12.30;99.90
21487;DHT22;10905;50.822;4.336;2023-10-31T12:39:15;12.40;99.90
21487;DHT22;10905;50.822;4.336;2023-10-31T12:41:42;12.40;99.90
21487;DHT22;10905;50.822;4.336;2023-10-31T12:44:09;12.50;99.90
21487;DHT22;10905;50.822;4.336;2023-10-31T12:46:39;12.50;99.90
21487;DHT22;10905;50.822;4.336;2023-10-31T12:49:11;12.60;99.90
21487;DHT22;10905;50.822;4.336;2023-10-31T12:51:37;12.60;99.90
21487;DHT22;10905;50.822;4.336;2023-10-31T12:54:03;12.50;99.90
21487;DHT22;10905;50.822;4.336;2023-10-31T12:56:57;12.60;99.90
21487;DHT22;10905;50.822;4.336;2023-10-31T12:59:24;12.60;99.90
21487;DHT22;10905;50.822;4.336;2023-10-31T13:01:49;12.60;99.90
21487;DHT22;10905;50.822;4.336;2023-10-31T13:04:24;12.70;99.90
21487;DHT22;10905;50.822;4.336;2023-10-31T13:07:02;12.70;99.90
21487;DHT22;10905;50.822;4.336;2023-10-31T13:09:29;12.60;99.90
21487;DHT22;10905;50.822;4.336;2023-10-31T13:11:58;12.60;99.90
21487;DHT22;10905;50.822;4.336;2023-10-31T13:14:24;12.60;99.90
21487;DHT22;10905;50.822;4.336;2023-10-31T13:16:49;12.60;99.90
21487;DHT22;10905;50.822;4.336;2023-10-31T13:19:16;12.60;99.90
21487;DHT22;10905;50.822;4.336;2023-10-31T13:21:41;12.70;99.90
21487;DHT22;10905;50.822;4.336;2023-10-31T13:24:07;12.70;99.90
21487;DHT22;10905;50.822;4.336;2023-10-31T13:26:33;12.70;99.90
21487;DHT22;10905;50.822;4.336;2023-10-31T13:28:59;12.70;99.90
21487;DHT22;10905;50.822;4.336;2023-10-31T13:31:25;12.70;99.90
21487;DHT22;10905;50.822;4.336;2023-10-31T13:33:51;12.60;99.90
21487;DHT22;10905;50.822;4.336;2023-10-31T13:36:16;12.70;99.90
21487;DHT22;10905;50.822;4.336;2023-10-31T13:38:42;12.80;99.90
21487;DHT22;10905;50.822;4.336;2023-10-31T13:41:08;12.80;99.90
21487;DHT22;10905;50.822;4.336;2023-10-31T13:43:35;12.80;99.90
21487;DHT22;10905;50.822;4.336;2023-10-31T13:46:03;12.90;99.90
21487;DHT22;10905;50.822;4.336;2023-10-31T13:48:28;13.00;99.90
21487;DHT22;10905;50.822;4.336;2023-10-31T13:50:54;13.00;99.90
21487;DHT22;10905;50.822;4.336;2023-10-31T13:53:20;13.10;99.90
21487;DHT22;10905;50.822;4.336;2023-10-31T13:55:45;13.20;99.90
21487;DHT22;10905;50.822;4.336;2023-10-31T13:58:11;13.30;99.90
21487;DHT22;10905;50.822;4.336;2023-10-31T14:00:37;13.40;99.90
21487;DHT22;10905;50.822;4.336;2023-10-31T14:03:03;13.40;99.90
21487;DHT22;10905;50.822;4.336;2023-10-31T14:05:28;13.40;99.90
21487;DHT22;10905;50.822;4.336;2023-10-31T14:07:54;13.40;99.90
21487;DHT22;10905;50.822;4.336;2023-10-31T14:10:19;13.40;99.90
21487;DHT22;10905;50.822;4.336;2023-10-31T14:12:46;13.40;99.90
21487;DHT22;10905;50.822;4.336;2023-10-31T14:15:12;13.40;99.90
21487;DHT22;10905;50.822;4.336;2023-10-31T14:17:38;13.40;99.90
21487;DHT22;10905;50.822;4.336;2023-10-31T14:20:04;13.40;99.90
21487;DHT22;10905;50.822;4.336;2023-10-31T14:22:30;13.40;99.90
21487;DHT22;10905;50.822;4.336;2023-10-31T14:24:56;13.40;99.90
21487;DHT22;10905;50.822;4.336;2023-10-31T14:27:21;13.40;99.90
21487;DHT22;10905;50.822;4.336;2023-10-31T14:29:47;13.40;99.90
21487;DHT22;10905;50.822;4.336;2023-10-31T14:32:12;13.50;99.90
21487;DHT22;10905;50.822;4.336;2023-10-31T14:34:38;13.60;99.90
21487;DHT22;10905;50.822;4.336;2023-10-31T14:37:04;13.50;99.90
21487;DHT22;10905;50.822;4.336;2023-10-31T14:39:31;13.50;99.90
21487;DHT22;10905;50.822;4.336;2023-10-31T14:41:57;13.40;99.90
21487;DHT22;10905;50.822;4.336;2023-10-31T14:44:23;13.30;99.90
21487;DHT22;10905;50.822;4.336;2023-10-31T14:46:48;13.40;99.90
21487;DHT22;10905;50.822;4.336;2023-10-31T14:49:14;13.50;99.90
21487;DHT22;10905;50.822;4.336;2023-10-31T14:51:40;13.50;99.90
21487;DHT22;10905;50.822;4.336;2023-10-31T14:54:07;13.60;99.90
21487;DHT22;10905;50.822;4.336;2023-10-31T14:56:33;13.50;99.90
21487;DHT22;10905;50.822;4.336;2023-10-31T14:59:00;13.50;99.90
21487;DHT22;10905;50.822;4.336;2023-10-31T15:01:28;13.60;99.90
21487;DHT22;10905;50.822;4.336;2023-10-31T15:03:54;13.50;99.90
21487;DHT22;10905;50.822;4.336;2023-10-31T15:06:21;13.50;99.90
21487;DHT22;10905;50.822;4.336;2023-10-31T15:08:47;13.50;99.90
21487;DHT22;10905;50.822;4.336;2023-10-31T15:11:13;13.50;99.90
21487;DHT22;10905;50.822;4.336;2023-10-31T15:13:38;13.50;99.90
21487;DHT22;10905;50.822;4.336;2023-10-31T15:16:05;13.50;99.90
21487;DHT22;10905;50.822;4.336;2023-10-31T15:18:30;13.50;99.90
21487;DHT22;10905;50.822;4.336;2023-10-31T15:20:56;13.50;99.90
21487;DHT22;10905;50.822;4.336;2023-10-31T15:23:23;13.50;99.90
21487;DHT22;10905;50.822;4.336;2023-10-31T15:25:51;13.50;99.90
21487;DHT22;10905;50.822;4.336;2023-10-31T15:28:17;13.40;99.90